createdAt,value
2022-09-14T00:05:38.774Z,100723.53
2022-09-14T00:15:45.114Z,100711.31
2022-09-14T00:25:48.181Z,100718.72
2022-09-14T00:35:52.580Z,100715.50
2022-09-14T00:45:56.420Z,100705.16
2022-09-14T00:56:00.860Z,100683.69
2022-09-14T01:06:11.791Z,100658.59
2022-09-14T01:16:25.478Z,100655.13
2022-09-14T01:27:01.240Z,100663.16
2022-09-14T01:37:13.149Z,100662.63
2022-09-14T01:47:20.715Z,100653.25
2022-09-14T01:57:30.058Z,100653.44
2022-09-14T02:07:33.438Z,100632.75
2022-09-14T02:17:38.166Z,100643.41
2022-09-14T02:27:41.280Z,100637.47
2022-09-14T02:37:54.499Z,100642.69
2022-09-14T02:48:05.881Z,100640.19
2022-09-14T02:58:11.949Z,100634.94
2022-09-14T03:08:14.869Z,100619.31
2022-09-14T03:18:19.619Z,100608.19
2022-09-14T03:28:22.614Z,100613.38
2022-09-14T03:38:30.126Z,100596.13
2022-09-14T03:48:33.094Z,100578.78
2022-09-14T03:58:38.388Z,100578.22
2022-09-14T04:08:42.627Z,100577.47
2022-09-14T04:18:47.018Z,100570.63
2022-09-14T04:28:50.371Z,100555.91
2022-09-14T04:38:57.138Z,100554.13
2022-09-14T04:49:00.358Z,100552.47
2022-09-14T04:59:06.121Z,100543.88
2022-09-14T05:09:13.610Z,100524.91
2022-09-14T05:19:19.355Z,100518.97
2022-09-14T05:29:22.315Z,100529.34
2022-09-14T05:39:26.620Z,100526.59
2022-09-14T05:49:30.284Z,100538.69
2022-09-14T05:59:35.601Z,100540.38
2022-09-14T06:09:38.518Z,100548.94
2022-09-14T06:19:42.865Z,100561.09
2022-09-14T06:29:45.893Z,100562.13
2022-09-14T06:39:50.447Z,100551.66
2022-09-14T06:49:53.467Z,100539.81
2022-09-14T06:59:57.824Z,100529.63
2022-09-14T07:10:00.675Z,100529.59
2022-09-14T07:20:06.002Z,100527.88
2022-09-14T07:30:10.523Z,100517.44
2022-09-14T07:40:14.972Z,100536.22
2022-09-14T07:50:18.275Z,100520.28
2022-09-14T08:00:23.289Z,100511.63
2022-09-14T08:10:26.712Z,100514.88
2022-09-14T08:20:31.192Z,100513.84
2022-09-14T08:30:34.586Z,100510.28
2022-09-14T08:40:46.281Z,100512.00
2022-09-14T08:50:53.792Z,100520.13
2022-09-14T09:01:05.210Z,100524.00
2022-09-14T09:11:15.209Z,100511.13
2022-09-14T09:21:23.551Z,100512.47
2022-09-14T09:31:37.350Z,100505.84
2022-09-14T09:42:05.154Z,100499.56
2022-09-14T09:52:11.022Z,100507.94
2022-09-14T10:02:36.215Z,100507.78
2022-09-14T10:12:46.775Z,100507.44
2022-09-14T10:22:51.225Z,100496.75
2022-09-14T10:32:59.243Z,100490.69
2022-09-14T10:43:14.517Z,100496.47
2022-09-14T10:53:39.185Z,100487.34
2022-09-14T11:04:03.553Z,100490.41
2022-09-14T11:14:27.869Z,100477.09
2022-09-14T11:24:41.378Z,100468.28
2022-09-14T11:34:49.393Z,100470.94
2022-09-14T11:45:00.975Z,100467.84
2022-09-14T11:55:10.325Z,100467.19
2022-09-14T12:05:35.583Z,100477.47
2022-09-14T12:15:40.874Z,100481.53
2022-09-14T12:26:05.282Z,100478.44
2022-09-14T12:36:10.944Z,100460.63
2022-09-14T12:46:36.563Z,100457.03
2022-09-14T12:56:54.064Z,100439.00
2022-09-14T13:07:07.750Z,100437.78
2022-09-14T13:17:16.242Z,100432.22
2022-09-14T13:27:26.026Z,100437.47
2022-09-14T13:37:29.791Z,100423.81
2022-09-14T13:47:35.068Z,100443.97
2022-09-14T13:57:39.479Z,100427.78
2022-09-14T14:07:47.703Z,100414.94
2022-09-14T14:17:51.768Z,100405.34
2022-09-14T14:28:04.642Z,100400.88
2022-09-14T14:38:13.362Z,100391.34
2022-09-14T14:48:26.689Z,100382.75
2022-09-14T14:58:36.486Z,100385.44
2022-09-14T15:08:41.984Z,100379.19
2022-09-14T15:18:48.195Z,100374.47
2022-09-14T15:29:01.158Z,100375.69
2022-09-14T15:39:04.757Z,100381.44
2022-09-14T15:49:14.245Z,100379.53
2022-09-14T15:59:19.417Z,100400.31
2022-09-14T16:09:24.264Z,100403.09
2022-09-14T16:19:46.041Z,100408.31
2022-09-14T16:29:50.931Z,100427.69
2022-09-14T16:39:54.549Z,100444.09
2022-09-14T16:50:10.011Z,100441.19
2022-09-14T17:00:14.374Z,100432.03
2022-09-14T17:10:22.284Z,100435.97
2022-09-14T17:20:28.742Z,100432.25
2022-09-14T17:30:36.341Z,100429.00
2022-09-14T17:40:46.191Z,100442.47
2022-09-14T17:50:51.424Z,100427.44
2022-09-14T18:01:05.730Z,100426.25
2022-09-14T18:11:12.169Z,100433.75
2022-09-14T18:21:16.951Z,100449.19
2022-09-14T18:31:21.272Z,100456.75
2022-09-14T18:41:24.453Z,100458.94
2022-09-14T18:51:30.399Z,100477.38
2022-09-14T19:01:34.823Z,100491.38
2022-09-14T19:11:39.544Z,100493.03
2022-09-14T19:21:42.992Z,100501.19
2022-09-14T19:31:50.970Z,100507.50
2022-09-14T19:41:54.524Z,100510.28
2022-09-14T19:51:59.132Z,100509.47
2022-09-14T20:02:02.518Z,100510.63
2022-09-14T20:12:07.340Z,100527.22
2022-09-14T20:22:13.714Z,100528.31
2022-09-14T20:32:21.059Z,100535.47
2022-09-14T20:42:24.034Z,100554.38
2022-09-14T20:52:28.442Z,100564.28
2022-09-14T21:02:32.506Z,100560.53
2022-09-14T21:12:37.077Z,100582.69
2022-09-14T21:22:40.283Z,100580.75
2022-09-14T21:32:49.651Z,100578.78
2022-09-14T21:42:52.678Z,100591.78
2022-09-14T21:52:57.023Z,100590.13
2022-09-14T22:03:00.057Z,100599.59
2022-09-14T22:13:04.585Z,100602.13
2022-09-14T22:23:07.609Z,100666.81
2022-09-14T22:33:12.217Z,100683.13
2022-09-14T22:43:15.220Z,100686.41
2022-09-14T22:53:20.222Z,100688.00
2022-09-14T23:03:23.142Z,100684.56
2022-09-14T23:13:27.516Z,100674.56
2022-09-14T23:23:30.530Z,100689.66
2022-09-14T23:33:34.998Z,100685.66
2022-09-14T23:43:37.973Z,100690.19
2022-09-14T23:53:43.200Z,100703.25
